createdAt,value
2023-04-11T00:03:13.828Z,2.19
2023-04-11T00:08:19.088Z,2.15
2023-04-11T00:13:24.657Z,2.14
2023-04-11T00:18:30.455Z,2.10
2023-04-11T00:23:35.955Z,1.97
2023-04-11T00:28:41.394Z,1.97
2023-04-11T00:33:46.782Z,1.88
2023-04-11T00:38:51.752Z,1.86
2023-04-11T00:43:58.147Z,1.82
2023-04-11T00:49:04.459Z,1.88
2023-04-11T00:54:10.834Z,1.81
2023-04-11T00:59:16.382Z,1.79
2023-04-11T01:04:24.744Z,1.72
2023-04-11T01:09:34.690Z,1.71
2023-04-11T01:14:41.031Z,1.78
2023-04-11T01:19:46.813Z,1.82
2023-04-11T01:24:52.716Z,1.75
2023-04-11T01:29:58.936Z,1.74
2023-04-11T01:35:06.296Z,1.73
2023-04-11T01:40:12.177Z,1.68
2023-04-11T01:45:19.452Z,1.68
2023-04-11T01:50:25.291Z,1.59
2023-04-11T01:55:30.892Z,1.66
2023-04-11T02:00:37.563Z,1.80
2023-04-11T02:05:45.094Z,1.78
2023-04-11T02:10:50.511Z,1.85
2023-04-11T02:15:55.816Z,1.87
2023-04-11T02:21:07.227Z,1.90
2023-04-11T02:26:13.183Z,1.98
2023-04-11T02:31:18.584Z,2.24
2023-04-11T02:36:24.134Z,2.69
2023-04-11T02:41:29.705Z,3.43
2023-04-11T02:46:35.227Z,4.14
2023-04-11T02:51:43.546Z,4.51
2023-04-11T02:56:51.573Z,5.05
2023-04-11T03:02:01.417Z,5.55
2023-04-11T03:07:08.539Z,6.14
2023-04-11T03:12:14.096Z,6.94
2023-04-11T03:17:32.649Z,7.51
2023-04-11T03:22:39.517Z,8.33
2023-04-11T03:27:44.398Z,8.72
2023-04-11T03:32:49.754Z,9.48
2023-04-11T03:37:54.777Z,10.44
2023-04-11T03:43:04.408Z,11.65
2023-04-11T03:48:13.042Z,12.58
2023-04-11T03:53:30.576Z,13.83
2023-04-11T03:58:42.150Z,15.12
2023-04-11T04:03:46.878Z,16.29
2023-04-11T04:08:52.747Z,17.46
2023-04-11T04:13:58.545Z,18.38
2023-04-11T04:19:03.196Z,19.25
2023-04-11T04:24:08.613Z,19.81
2023-04-11T04:29:39.731Z,19.78
2023-04-11T04:34:55.601Z,19.28
2023-04-11T04:40:14.478Z,19.27
2023-04-11T04:45:27.270Z,18.56
2023-04-11T04:50:32.537Z,18.74
2023-04-11T04:55:36.922Z,18.16
2023-04-11T05:42:45.363Z,18.15
2023-04-11T05:47:49.871Z,17.92
2023-04-11T05:52:53.932Z,18.30
2023-04-11T05:57:58.333Z,17.94
2023-04-11T06:03:03.166Z,18.11
2023-04-11T06:08:08.157Z,17.29
2023-04-11T06:13:12.525Z,16.73
2023-04-11T06:18:16.715Z,16.10
2023-04-11T06:23:20.796Z,16.00
2023-04-11T06:28:24.924Z,15.32
2023-04-11T06:33:28.989Z,15.79
2023-04-11T06:38:35.568Z,15.28
2023-04-11T06:43:39.638Z,14.99
2023-04-11T06:48:44.609Z,15.03
2023-04-11T06:53:48.694Z,15.32
2023-04-11T06:58:52.996Z,15.31
2023-04-11T07:03:57.681Z,15.48
2023-04-11T07:09:02.304Z,15.56
2023-04-11T07:14:06.770Z,15.86
2023-04-11T07:19:10.935Z,16.00
2023-04-11T07:24:14.971Z,15.89
2023-04-11T07:29:18.979Z,15.83
2023-04-11T07:34:22.959Z,15.75
2023-04-11T07:39:29.936Z,16.20
2023-04-11T07:44:34.315Z,16.48
2023-04-11T07:49:38.577Z,16.15
2023-04-11T07:54:42.801Z,16.51
2023-04-11T07:59:46.917Z,16.31
2023-04-11T08:04:52.964Z,16.69
2023-04-11T08:09:57.165Z,16.90
2023-04-11T08:15:01.491Z,16.69
2023-04-11T08:20:09.797Z,16.59
2023-04-11T08:25:15.593Z,16.65
2023-04-11T08:30:19.780Z,17.01
2023-04-11T08:35:23.866Z,16.65
2023-04-11T08:40:29.192Z,16.79
2023-04-11T08:45:33.260Z,16.76
2023-04-11T08:50:37.368Z,16.77
2023-04-11T08:55:47.910Z,17.03
2023-04-11T09:00:52.078Z,16.90
2023-04-11T09:05:57.792Z,16.99
2023-04-11T09:11:02.306Z,17.27
2023-04-11T09:16:11.270Z,17.13
2023-04-11T09:21:17.478Z,16.95
2023-04-11T09:26:28.976Z,16.84
2023-04-11T09:31:44.317Z,16.69
2023-04-11T09:36:56.142Z,16.71
2023-04-11T09:42:00.235Z,16.75
2023-04-11T09:47:04.593Z,17.06
2023-04-11T09:52:09.380Z,16.86
2023-04-11T09:57:14.499Z,16.94
2023-04-11T10:02:18.691Z,17.07
2023-04-11T10:07:23.871Z,17.03
2023-04-11T10:12:35.752Z,17.07
2023-04-11T10:17:41.502Z,17.14
2023-04-11T10:22:51.879Z,17.01
2023-04-11T10:28:04.536Z,16.98
2023-04-11T10:33:12.353Z,17.08
2023-04-11T10:38:44.332Z,16.91
2023-04-11T10:43:48.426Z,16.98
2023-04-11T10:49:03.024Z,16.99
2023-04-11T10:54:07.171Z,17.03
2023-04-11T10:59:33.403Z,17.01
2023-04-11T11:04:39.521Z,17.17
2023-04-11T11:09:49.848Z,17.02
2023-04-11T11:14:55.115Z,16.75
2023-04-11T11:19:59.401Z,16.78
2023-04-11T11:25:10.016Z,16.77
2023-04-11T11:30:14.884Z,16.78
2023-04-11T11:35:19.218Z,16.74
2023-04-11T11:40:23.554Z,16.92
2023-04-11T11:45:27.912Z,16.73
2023-04-11T11:50:33.679Z,17.01
2023-04-11T11:55:38.034Z,16.88
2023-04-11T12:00:42.533Z,16.78
2023-04-11T12:05:48.362Z,16.74
2023-04-11T12:10:52.399Z,16.73
2023-04-11T12:16:04.341Z,16.76
2023-04-11T12:21:08.810Z,16.60
2023-04-11T12:26:13.060Z,16.62
2023-04-11T12:31:17.852Z,16.61
2023-04-11T12:36:22.565Z,16.59
2023-04-11T12:46:34.554Z,16.63
2023-04-11T12:51:39.683Z,16.71
2023-04-11T12:56:43.983Z,16.70
2023-04-11T13:01:48.220Z,16.86
2023-04-11T13:06:56.122Z,16.70
2023-04-11T13:12:04.424Z,16.83
2023-04-11T13:17:09.062Z,16.65
2023-04-11T13:22:13.207Z,16.54
2023-04-11T13:27:17.337Z,16.40
2023-04-11T13:32:24.730Z,16.42
2023-04-11T13:37:29.955Z,16.47
2023-04-11T13:42:35.980Z,16.35
2023-04-11T13:47:41.534Z,16.27
2023-04-11T13:52:47.115Z,16.22
2023-04-11T13:57:52.527Z,16.12
2023-04-11T14:02:58.390Z,15.79
2023-04-11T14:08:04.605Z,16.04
2023-04-11T14:13:11.706Z,15.94
2023-04-11T14:18:18.591Z,15.88
2023-04-11T14:23:24.949Z,15.79
2023-04-11T14:28:30.305Z,15.74
2023-04-11T14:33:36.008Z,15.63
2023-04-11T14:38:41.654Z,15.53
2023-04-11T14:43:47.182Z,15.44
2023-04-11T14:48:52.598Z,15.24
2023-04-11T14:54:00.452Z,15.23
2023-04-11T14:59:06.571Z,15.11
2023-04-11T15:04:12.360Z,14.89
2023-04-11T15:09:24.034Z,14.75
2023-04-11T15:14:32.270Z,14.58
2023-04-11T15:19:37.789Z,14.39
2023-04-11T15:24:43.969Z,14.17
2023-04-11T15:29:49.973Z,13.88
2023-04-11T15:34:56.210Z,13.48
2023-04-11T15:40:07.947Z,13.20
2023-04-11T15:45:15.012Z,12.94
2023-04-11T15:50:21.019Z,12.72
2023-04-11T15:55:26.250Z,12.54
2023-04-11T16:00:32.485Z,12.25
2023-04-11T16:05:41.403Z,12.08
2023-04-11T16:10:47.942Z,11.86
2023-04-11T16:15:53.766Z,11.74
2023-04-11T16:21:00.025Z,11.66
2023-04-11T16:26:05.565Z,11.57
2023-04-11T16:31:11.716Z,11.54
2023-04-11T16:36:17.384Z,11.55
2023-04-11T16:41:22.985Z,11.40
2023-04-11T16:46:28.308Z,11.15
2023-04-11T16:51:37.392Z,11.03
2023-04-11T16:56:42.734Z,10.82
2023-04-11T17:01:48.209Z,10.71
2023-04-11T17:06:54.424Z,10.55
2023-04-11T17:12:00.418Z,10.41
2023-04-11T17:17:07.220Z,10.28
2023-04-11T17:22:13.648Z,10.26
2023-04-11T17:27:19.136Z,10.33
2023-04-11T17:32:24.950Z,10.45
2023-04-11T17:37:29.794Z,10.52
2023-04-11T17:42:35.361Z,10.50
2023-04-11T17:47:44.057Z,10.57
2023-04-11T17:52:50.237Z,10.53
2023-04-11T17:57:55.783Z,10.43
2023-04-11T18:03:01.398Z,10.30
2023-04-11T18:08:08.423Z,9.98
2023-04-11T18:13:14.083Z,10.05
2023-04-11T18:18:20.239Z,9.91
2023-04-11T18:23:25.975Z,9.82
2023-04-11T18:28:31.516Z,9.61
2023-04-11T18:33:40.146Z,9.39
2023-04-11T18:38:49.457Z,9.22
2023-04-11T18:43:54.997Z,9.24
2023-04-11T18:49:01.298Z,9.17
2023-04-11T18:54:07.239Z,8.99
2023-04-11T18:59:16.219Z,8.79
2023-04-11T19:04:26.065Z,8.74
2023-04-11T19:09:31.999Z,8.60
2023-04-11T19:14:38.215Z,8.43
2023-04-11T19:19:44.089Z,8.58
2023-04-11T19:24:50.379Z,8.48
2023-04-11T19:29:56.459Z,8.33
2023-04-11T19:35:03.539Z,8.20
2023-04-11T19:40:19.680Z,7.92
2023-04-11T19:45:26.122Z,7.85
2023-04-11T19:50:32.015Z,7.56
2023-04-11T19:55:38.117Z,7.49
2023-04-11T20:00:44.880Z,7.58
2023-04-11T20:05:51.449Z,7.76
2023-04-11T20:10:57.199Z,7.73
2023-04-11T20:16:05.973Z,7.78
2023-04-11T20:21:11.505Z,8.14
2023-04-11T20:26:17.076Z,8.53
2023-04-11T20:31:22.539Z,8.59
2023-04-11T20:36:29.296Z,8.69
2023-04-11T20:41:33.362Z,8.94
2023-04-11T20:46:40.231Z,9.13
2023-04-11T20:51:46.540Z,9.33
2023-04-11T20:56:52.934Z,9.25
2023-04-11T21:01:58.347Z,9.28
2023-04-11T21:07:04.393Z,9.11
2023-04-11T21:12:10.592Z,8.92
2023-04-11T21:17:16.398Z,8.83
2023-04-11T21:22:21.755Z,8.09
2023-04-11T21:27:27.792Z,8.06
2023-04-11T21:32:33.454Z,7.93
2023-04-11T21:37:39.671Z,7.76
2023-04-11T21:42:46.527Z,7.66
2023-04-11T21:47:56.320Z,7.74
2023-04-11T21:53:01.916Z,7.56
2023-04-11T21:58:13.302Z,7.47
2023-04-11T22:03:31.225Z,7.11
2023-04-11T22:08:39.493Z,6.99
2023-04-11T22:13:47.021Z,7.13
2023-04-11T22:18:55.162Z,7.29
2023-04-11T22:24:02.724Z,7.19
2023-04-11T22:29:08.276Z,7.18
2023-04-11T22:34:14.042Z,7.22
2023-04-11T22:39:22.855Z,7.53
2023-04-11T22:44:28.808Z,7.42
2023-04-11T22:49:42.451Z,7.55
2023-04-11T22:54:47.849Z,7.50
2023-04-11T22:59:53.223Z,7.65
2023-04-11T23:04:59.045Z,7.81
2023-04-11T23:10:06.663Z,7.80
2023-04-11T23:15:13.067Z,7.28
2023-04-11T23:20:18.848Z,7.55
2023-04-11T23:25:24.276Z,7.93
2023-04-11T23:30:30.449Z,7.95
2023-04-11T23:35:36.590Z,8.02
2023-04-11T23:40:42.080Z,8.04
2023-04-11T23:45:47.934Z,8.17
2023-04-11T23:50:53.442Z,8.17
2023-04-11T23:55:58.805Z,8.04
